sensor_id;sensor_type;location;lat;lon;timestamp;pressure;altitude;pressure_sealevel;temperature
19040;BMP180;9652;49.014;12.052;2023-07-20T00:02:04;97557.00;;;23.20
19040;BMP180;9652;49.014;12.052;2023-07-20T00:04:33;97539.00;;;23.20
19040;BMP180;9652;49.014;12.052;2023-07-20T00:07:01;97542.00;;;23.20
19040;BMP180;9652;49.014;12.052;2023-07-20T00:09:29;97541.00;;;23.10
19040;BMP180;9652;49.014;12.052;2023-07-20T00:11:56;97526.00;;;23.10
19040;BMP180;9652;49.014;12.052;2023-07-20T00:14:26;97539.00;;;23.10
19040;BMP180;9652;49.014;12.052;2023-07-20T00:16:54;97545.00;;;23.10
19040;BMP180;9652;49.014;12.052;2023-07-20T00:19:23;97538.00;;;23.10
19040;BMP180;9652;49.014;12.052;2023-07-20T00:21:50;97548.00;;;23.00
19040;BMP180;9652;49.014;12.052;2023-07-20T00:24:18;97542.00;;;23.00
19040;BMP180;9652;49.014;12.052;2023-07-20T00:26:46;97536.00;;;23.00
19040;BMP180;9652;49.014;12.052;2023-07-20T00:29:13;97537.00;;;23.00
19040;BMP180;9652;49.014;12.052;2023-07-20T00:31:41;97544.00;;;23.00
19040;BMP180;9652;49.014;12.052;2023-07-20T00:34:09;97545.00;;;22.90
19040;BMP180;9652;49.014;12.052;2023-07-20T00:36:36;97549.00;;;22.90
19040;BMP180;9652;49.014;12.052;2023-07-20T00:39:03;97534.00;;;22.90
19040;BMP180;9652;49.014;12.052;2023-07-20T00:41:32;97530.00;;;22.80
19040;BMP180;9652;49.014;12.052;2023-07-20T00:43:59;97513.00;;;22.80
19040;BMP180;9652;49.014;12.052;2023-07-20T00:46:27;97538.00;;;22.80
19040;BMP180;9652;49.014;12.052;2023-07-20T00:48:54;97537.00;;;22.80
19040;BMP180;9652;49.014;12.052;2023-07-20T00:51:24;97545.00;;;22.80
19040;BMP180;9652;49.014;12.052;2023-07-20T00:53:53;97548.00;;;22.80
19040;BMP180;9652;49.014;12.052;2023-07-20T00:56:20;97553.00;;;22.70
19040;BMP180;9652;49.014;12.052;2023-07-20T00:58:49;97556.00;;;22.70
19040;BMP180;9652;49.014;12.052;2023-07-20T01:01:17;97557.00;;;22.70
19040;BMP180;9652;49.014;12.052;2023-07-20T01:03:44;97554.00;;;22.70
19040;BMP180;9652;49.014;12.052;2023-07-20T01:06:24;97555.00;;;22.70
19040;BMP180;9652;49.014;12.052;2023-07-20T01:09:04;97540.00;;;22.70
19040;BMP180;9652;49.014;12.052;2023-07-20T01:11:39;97546.00;;;22.70
19040;BMP180;9652;49.014;12.052;2023-07-20T01:14:14;97549.00;;;22.70
19040;BMP180;9652;49.014;12.052;2023-07-20T01:16:41;97548.00;;;22.70
19040;BMP180;9652;49.014;12.052;2023-07-20T01:19:08;97539.00;;;22.50
19040;BMP180;9652;49.014;12.052;2023-07-20T01:21:48;97539.00;;;22.60
19040;BMP180;9652;49.014;12.052;2023-07-20T01:28:02;97524.00;;;22.50
19040;BMP180;9652;49.014;12.052;2023-07-20T01:30:54;97481.00;;;22.50
19040;BMP180;9652;49.014;12.052;2023-07-20T01:33:25;97530.00;;;22.50
19040;BMP180;9652;49.014;12.052;2023-07-20T01:35:57;97542.00;;;22.50
19040;BMP180;9652;49.014;12.052;2023-07-20T01:38:25;97535.00;;;22.50
19040;BMP180;9652;49.014;12.052;2023-07-20T01:40:53;97533.00;;;22.50
19040;BMP180;9652;49.014;12.052;2023-07-20T01:43:20;97540.00;;;22.50
19040;BMP180;9652;49.014;12.052;2023-07-20T01:45:47;97541.00;;;22.50
19040;BMP180;9652;49.014;12.052;2023-07-20T01:48:14;97541.00;;;22.50
19040;BMP180;9652;49.014;12.052;2023-07-20T01:50:43;97542.00;;;22.50
19040;BMP180;9652;49.014;12.052;2023-07-20T01:53:10;97543.00;;;22.50
19040;BMP180;9652;49.014;12.052;2023-07-20T01:55:37;97539.00;;;22.50
19040;BMP180;9652;49.014;12.052;2023-07-20T01:58:04;97524.00;;;22.50
19040;BMP180;9652;49.014;12.052;2023-07-20T02:00:32;97539.00;;;22.50
19040;BMP180;9652;49.014;12.052;2023-07-20T02:02:59;97540.00;;;22.50
19040;BMP180;9652;49.014;12.052;2023-07-20T02:05:26;97542.00;;;22.50
19040;BMP180;9652;49.014;12.052;2023-07-20T02:07:55;97546.00;;;22.50
19040;BMP180;9652;49.014;12.052;2023-07-20T02:10:22;97556.00;;;22.40
19040;BMP180;9652;49.014;12.052;2023-07-20T02:12:49;97550.00;;;22.40
19040;BMP180;9652;49.014;12.052;2023-07-20T02:15:16;97549.00;;;22.40
19040;BMP180;9652;49.014;12.052;2023-07-20T02:17:44;97546.00;;;22.40
19040;BMP180;9652;49.014;12.052;2023-07-20T02:20:11;97540.00;;;22.30
19040;BMP180;9652;49.014;12.052;2023-07-20T02:22:39;97537.00;;;22.30
19040;BMP180;9652;49.014;12.052;2023-07-20T02:25:09;97543.00;;;22.30
19040;BMP180;9652;49.014;12.052;2023-07-20T02:27:37;97557.00;;;22.20
19040;BMP180;9652;49.014;12.052;2023-07-20T02:30:06;97538.00;;;22.20
19040;BMP180;9652;49.014;12.052;2023-07-20T02:32:36;97546.00;;;22.20
19040;BMP180;9652;49.014;12.052;2023-07-20T02:35:04;97575.00;;;22.20
19040;BMP180;9652;49.014;12.052;2023-07-20T02:37:32;97559.00;;;22.20
19040;BMP180;9652;49.014;12.052;2023-07-20T02:39:59;97557.00;;;22.20
19040;BMP180;9652;49.014;12.052;2023-07-20T02:42:28;97554.00;;;22.20
19040;BMP180;9652;49.014;12.052;2023-07-20T02:44:55;97553.00;;;22.20
19040;BMP180;9652;49.014;12.052;2023-07-20T02:47:22;97562.00;;;22.20
19040;BMP180;9652;49.014;12.052;2023-07-20T02:49:49;97555.00;;;22.10
19040;BMP180;9652;49.014;12.052;2023-07-20T02:52:16;97550.00;;;22.20
19040;BMP180;9652;49.014;12.052;2023-07-20T02:54:43;97552.00;;;22.20
19040;BMP180;9652;49.014;12.052;2023-07-20T02:57:11;97566.00;;;22.20
19040;BMP180;9652;49.014;12.052;2023-07-20T02:59:39;97563.00;;;22.20
19040;BMP180;9652;49.014;12.052;2023-07-20T03:02:07;97558.00;;;22.20
19040;BMP180;9652;49.014;12.052;2023-07-20T03:04:35;97559.00;;;22.20
19040;BMP180;9652;49.014;12.052;2023-07-20T03:07:04;97549.00;;;22.20
19040;BMP180;9652;49.014;12.052;2023-07-20T03:09:31;97558.00;;;22.20
19040;BMP180;9652;49.014;12.052;2023-07-20T03:11:58;97554.00;;;22.20
19040;BMP180;9652;49.014;12.052;2023-07-20T03:14:26;97564.00;;;22.20
19040;BMP180;9652;49.014;12.052;2023-07-20T03:16:56;97559.00;;;22.20
19040;BMP180;9652;49.014;12.052;2023-07-20T03:19:23;97545.00;;;22.30
19040;BMP180;9652;49.014;12.052;2023-07-20T03:21:50;97539.00;;;22.30
19040;BMP180;9652;49.014;12.052;2023-07-20T03:24:18;97549.00;;;22.30
19040;BMP180;9652;49.014;12.052;2023-07-20T03:26:47;97554.00;;;22.30
19040;BMP180;9652;49.014;12.052;2023-07-20T03:29:15;97565.00;;;22.30
19040;BMP180;9652;49.014;12.052;2023-07-20T03:31:44;97561.00;;;22.30
19040;BMP180;9652;49.014;12.052;2023-07-20T03:34:12;97553.00;;;22.30
19040;BMP180;9652;49.014;12.052;2023-07-20T03:36:39;97557.00;;;22.30
19040;BMP180;9652;49.014;12.052;2023-07-20T03:39:06;97568.00;;;22.30
19040;BMP180;9652;49.014;12.052;2023-07-20T03:41:33;97552.00;;;22.30
19040;BMP180;9652;49.014;12.052;2023-07-20T03:44:00;97558.00;;;22.30
19040;BMP180;9652;49.014;12.052;2023-07-20T03:46:27;97560.00;;;22.30
19040;BMP180;9652;49.014;12.052;2023-07-20T03:48:54;97568.00;;;22.30
19040;BMP180;9652;49.014;12.052;2023-07-20T03:51:23;97564.00;;;22.30
19040;BMP180;9652;49.014;12.052;2023-07-20T03:53:50;97565.00;;;22.30
19040;BMP180;9652;49.014;12.052;2023-07-20T03:56:17;97563.00;;;22.30
19040;BMP180;9652;49.014;12.052;2023-07-20T03:58:44;97573.00;;;22.30
19040;BMP180;9652;49.014;12.052;2023-07-20T04:01:11;97572.00;;;22.30
19040;BMP180;9652;49.014;12.052;2023-07-20T04:03:38;97577.00;;;22.30
19040;BMP180;9652;49.014;12.052;2023-07-20T04:06:06;97577.00;;;22.30
19040;BMP180;9652;49.014;12.052;2023-07-20T04:08:35;97574.00;;;22.20
19040;BMP180;9652;49.014;12.052;2023-07-20T04:11:03;97580.00;;;22.20
19040;BMP180;9652;49.014;12.052;2023-07-20T04:13:30;97518.00;;;22.20
19040;BMP180;9652;49.014;12.052;2023-07-20T04:15:59;97590.00;;;22.20
19040;BMP180;9652;49.014;12.052;2023-07-20T04:18:26;97582.00;;;22.30
19040;BMP180;9652;49.014;12.052;2023-07-20T04:20:53;97591.00;;;22.30
19040;BMP180;9652;49.014;12.052;2023-07-20T04:23:20;97597.00;;;22.30
19040;BMP180;9652;49.014;12.052;2023-07-20T04:25:49;97593.00;;;22.30
19040;BMP180;9652;49.014;12.052;2023-07-20T04:28:16;97583.00;;;22.40
19040;BMP180;9652;49.014;12.052;2023-07-20T04:30:49;97605.00;;;22.40
19040;BMP180;9652;49.014;12.052;2023-07-20T04:33:17;97586.00;;;22.40
19040;BMP180;9652;49.014;12.052;2023-07-20T04:35:51;97595.00;;;22.50
19040;BMP180;9652;49.014;12.052;2023-07-20T04:38:39;97583.00;;;22.60
19040;BMP180;9652;49.014;12.052;2023-07-20T04:41:15;97600.00;;;22.60
19040;BMP180;9652;49.014;12.052;2023-07-20T04:43:45;97597.00;;;22.60
19040;BMP180;9652;49.014;12.052;2023-07-20T04:46:16;97604.00;;;22.60
19040;BMP180;9652;49.014;12.052;2023-07-20T04:48:44;97600.00;;;22.70
19040;BMP180;9652;49.014;12.052;2023-07-20T04:51:11;97598.00;;;22.70
19040;BMP180;9652;49.014;12.052;2023-07-20T04:53:39;97604.00;;;22.70
19040;BMP180;9652;49.014;12.052;2023-07-20T04:56:08;97606.00;;;22.80
19040;BMP180;9652;49.014;12.052;2023-07-20T04:58:37;97606.00;;;22.80
19040;BMP180;9652;49.014;12.052;2023-07-20T05:01:04;97609.00;;;22.80
19040;BMP180;9652;49.014;12.052;2023-07-20T05:03:33;97607.00;;;22.90
19040;BMP180;9652;49.014;12.052;2023-07-20T05:06:01;97601.00;;;22.90
19040;BMP180;9652;49.014;12.052;2023-07-20T05:08:29;97610.00;;;22.90
19040;BMP180;9652;49.014;12.052;2023-07-20T05:10:56;97610.00;;;22.90
19040;BMP180;9652;49.014;12.052;2023-07-20T05:13:23;97604.00;;;23.00
19040;BMP180;9652;49.014;12.052;2023-07-20T05:15:53;97604.00;;;23.00
19040;BMP180;9652;49.014;12.052;2023-07-20T05:18:21;97609.00;;;23.10
19040;BMP180;9652;49.014;12.052;2023-07-20T05:20:50;97608.00;;;23.10
19040;BMP180;9652;49.014;12.052;2023-07-20T05:23:18;97608.00;;;23.20
19040;BMP180;9652;49.014;12.052;2023-07-20T05:25:46;97616.00;;;23.20
19040;BMP180;9652;49.014;12.052;2023-07-20T05:28:13;97614.00;;;23.30
19040;BMP180;9652;49.014;12.052;2023-07-20T05:30:40;97619.00;;;23.30
19040;BMP180;9652;49.014;12.052;2023-07-20T05:33:09;97616.00;;;23.30
19040;BMP180;9652;49.014;12.052;2023-07-20T05:35:36;97622.00;;;23.40
19040;BMP180;9652;49.014;12.052;2023-07-20T05:38:04;97633.00;;;23.50
19040;BMP180;9652;49.014;12.052;2023-07-20T05:40:32;97629.00;;;23.50
19040;BMP180;9652;49.014;12.052;2023-07-20T05:42:59;97624.00;;;23.60
19040;BMP180;9652;49.014;12.052;2023-07-20T05:45:27;97630.00;;;23.70
19040;BMP180;9652;49.014;12.052;2023-07-20T05:47:54;97634.00;;;23.70
19040;BMP180;9652;49.014;12.052;2023-07-20T05:50:22;97646.00;;;23.80
19040;BMP180;9652;49.014;12.052;2023-07-20T05:52:52;97645.00;;;23.90
19040;BMP180;9652;49.014;12.052;2023-07-20T05:55:20;97632.00;;;23.90
19040;BMP180;9652;49.014;12.052;2023-07-20T05:57:47;97651.00;;;24.00
19040;BMP180;9652;49.014;12.052;2023-07-20T06:00:16;97647.00;;;24.10
19040;BMP180;9652;49.014;12.052;2023-07-20T06:02:44;97654.00;;;24.20
19040;BMP180;9652;49.014;12.052;2023-07-20T06:05:13;97647.00;;;24.20
19040;BMP180;9652;49.014;12.052;2023-07-20T06:07:42;97643.00;;;24.30
19040;BMP180;9652;49.014;12.052;2023-07-20T06:10:09;97651.00;;;24.30
19040;BMP180;9652;49.014;12.052;2023-07-20T06:12:36;97637.00;;;24.40
19040;BMP180;9652;49.014;12.052;2023-07-20T06:15:05;97657.00;;;24.40
19040;BMP180;9652;49.014;12.052;2023-07-20T06:17:32;97655.00;;;24.40
19040;BMP180;9652;49.014;12.052;2023-07-20T06:19:59;97657.00;;;24.40
19040;BMP180;9652;49.014;12.052;2023-07-20T06:22:27;97653.00;;;24.40
19040;BMP180;9652;49.014;12.052;2023-07-20T06:24:56;97633.00;;;24.40
19040;BMP180;9652;49.014;12.052;2023-07-20T06:27:23;97660.00;;;24.40
19040;BMP180;9652;49.014;12.052;2023-07-20T06:29:50;97663.00;;;24.30
19040;BMP180;9652;49.014;12.052;2023-07-20T06:32:17;97660.00;;;24.30
19040;BMP180;9652;49.014;12.052;2023-07-20T06:34:44;97665.00;;;24.30
19040;BMP180;9652;49.014;12.052;2023-07-20T06:37:11;97667.00;;;24.30
19040;BMP180;9652;49.014;12.052;2023-07-20T06:39:38;97659.00;;;24.30
19040;BMP180;9652;49.014;12.052;2023-07-20T06:42:07;97662.00;;;24.30
19040;BMP180;9652;49.014;12.052;2023-07-20T06:44:34;97665.00;;;24.20
19040;BMP180;9652;49.014;12.052;2023-07-20T06:47:01;97665.00;;;24.20
19040;BMP180;9652;49.014;12.052;2023-07-20T06:49:29;97672.00;;;24.20
19040;BMP180;9652;49.014;12.052;2023-07-20T06:51:56;97664.00;;;24.20
19040;BMP180;9652;49.014;12.052;2023-07-20T06:54:23;97664.00;;;24.20
19040;BMP180;9652;49.014;12.052;2023-07-20T06:56:50;97662.00;;;24.20
19040;BMP180;9652;49.014;12.052;2023-07-20T06:59:18;97669.00;;;24.20
19040;BMP180;9652;49.014;12.052;2023-07-20T07:01:47;97652.00;;;24.20
19040;BMP180;9652;49.014;12.052;2023-07-20T07:04:14;97664.00;;;24.30
19040;BMP180;9652;49.014;12.052;2023-07-20T07:06:41;97670.00;;;24.30
19040;BMP180;9652;49.014;12.052;2023-07-20T07:09:08;97668.00;;;24.40
19040;BMP180;9652;49.014;12.052;2023-07-20T07:11:35;97678.00;;;24.40
19040;BMP180;9652;49.014;12.052;2023-07-20T07:14:02;97666.00;;;24.40
19040;BMP180;9652;49.014;12.052;2023-07-20T07:16:31;97674.00;;;24.40
19040;BMP180;9652;49.014;12.052;2023-07-20T07:18:58;97650.00;;;24.40
19040;BMP180;9652;49.014;12.052;2023-07-20T07:21:25;97636.00;;;24.40
19040;BMP180;9652;49.014;12.052;2023-07-20T07:23:52;97665.00;;;24.40
19040;BMP180;9652;49.014;12.052;2023-07-20T07:26:23;97674.00;;;24.40
19040;BMP180;9652;49.014;12.052;2023-07-20T07:28:50;97669.00;;;24.40
19040;BMP180;9652;49.014;12.052;2023-07-20T07:31:17;97672.00;;;24.50
19040;BMP180;9652;49.014;12.052;2023-07-20T07:33:46;97676.00;;;24.50
19040;BMP180;9652;49.014;12.052;2023-07-20T07:36:13;97676.00;;;24.60
19040;BMP180;9652;49.014;12.052;2023-07-20T07:38:40;97674.00;;;24.70
19040;BMP180;9652;49.014;12.052;2023-07-20T07:41:07;97683.00;;;24.70
19040;BMP180;9652;49.014;12.052;2023-07-20T07:43:34;97680.00;;;24.80
19040;BMP180;9652;49.014;12.052;2023-07-20T07:46:02;97682.00;;;24.80
19040;BMP180;9652;49.014;12.052;2023-07-20T07:48:29;97688.00;;;24.90
19040;BMP180;9652;49.014;12.052;2023-07-20T07:50:58;97669.00;;;24.90
19040;BMP180;9652;49.014;12.052;2023-07-20T07:53:25;97673.00;;;25.00
19040;BMP180;9652;49.014;12.052;2023-07-20T07:55:52;97638.00;;;25.10
19040;BMP180;9652;49.014;12.052;2023-07-20T07:58:19;97686.00;;;25.10
19040;BMP180;9652;49.014;12.052;2023-07-20T08:00:46;97686.00;;;25.20
19040;BMP180;9652;49.014;12.052;2023-07-20T08:03:14;97682.00;;;25.30
19040;BMP180;9652;49.014;12.052;2023-07-20T08:05:41;97689.00;;;25.40
19040;BMP180;9652;49.014;12.052;2023-07-20T08:08:09;97685.00;;;25.40
19040;BMP180;9652;49.014;12.052;2023-07-20T08:10:36;97676.00;;;25.50
19040;BMP180;9652;49.014;12.052;2023-07-20T08:13:03;97688.00;;;25.60
19040;BMP180;9652;49.014;12.052;2023-07-20T08:15:30;97693.00;;;25.70
19040;BMP180;9652;49.014;12.052;2023-07-20T08:17:57;97694.00;;;25.80
19040;BMP180;9652;49.014;12.052;2023-07-20T08:20:24;97690.00;;;25.80
19040;BMP180;9652;49.014;12.052;2023-07-20T08:22:52;97703.00;;;25.80
19040;BMP180;9652;49.014;12.052;2023-07-20T08:25:21;97698.00;;;25.80
19040;BMP180;9652;49.014;12.052;2023-07-20T08:27:48;97699.00;;;25.90
19040;BMP180;9652;49.014;12.052;2023-07-20T08:30:16;97696.00;;;25.90
19040;BMP180;9652;49.014;12.052;2023-07-20T08:32:43;97698.00;;;25.90
19040;BMP180;9652;49.014;12.052;2023-07-20T08:35:10;97690.00;;;26.00
19040;BMP180;9652;49.014;12.052;2023-07-20T08:37:37;97693.00;;;26.10
19040;BMP180;9652;49.014;12.052;2023-07-20T08:40:05;97685.00;;;26.10
19040;BMP180;9652;49.014;12.052;2023-07-20T08:42:38;97700.00;;;26.10
19040;BMP180;9652;49.014;12.052;2023-07-20T08:45:08;97697.00;;;26.20
19040;BMP180;9652;49.014;12.052;2023-07-20T08:47:36;97700.00;;;26.20
19040;BMP180;9652;49.014;12.052;2023-07-20T08:50:07;97681.00;;;26.30
19040;BMP180;9652;49.014;12.052;2023-07-20T08:52:35;97684.00;;;26.40
19040;BMP180;9652;49.014;12.052;2023-07-20T08:55:02;97702.00;;;26.50
19040;BMP180;9652;49.014;12.052;2023-07-20T08:57:33;97705.00;;;26.60
19040;BMP180;9652;49.014;12.052;2023-07-20T09:00:03;97696.00;;;26.60
19040;BMP180;9652;49.014;12.052;2023-07-20T09:02:38;97698.00;;;26.70
19040;BMP180;9652;49.014;12.052;2023-07-20T09:05:08;97671.00;;;26.70
19040;BMP180;9652;49.014;12.052;2023-07-20T09:07:36;97705.00;;;26.70
19040;BMP180;9652;49.014;12.052;2023-07-20T09:10:04;97686.00;;;26.80
19040;BMP180;9652;49.014;12.052;2023-07-20T09:12:32;97685.00;;;26.80
19040;BMP180;9652;49.014;12.052;2023-07-20T09:15:03;97686.00;;;26.80
19040;BMP180;9652;49.014;12.052;2023-07-20T09:17:31;97693.00;;;26.80
19040;BMP180;9652;49.014;12.052;2023-07-20T09:19:58;97687.00;;;26.80
19040;BMP180;9652;49.014;12.052;2023-07-20T09:22:30;97682.00;;;26.80
19040;BMP180;9652;49.014;12.052;2023-07-20T09:24:58;97681.00;;;26.80
19040;BMP180;9652;49.014;12.052;2023-07-20T09:27:35;97678.00;;;26.70
19040;BMP180;9652;49.014;12.052;2023-07-20T09:30:06;97684.00;;;26.80
19040;BMP180;9652;49.014;12.052;2023-07-20T09:32:39;97690.00;;;26.70
19040;BMP180;9652;49.014;12.052;2023-07-20T09:35:14;97685.00;;;26.80
19040;BMP180;9652;49.014;12.052;2023-07-20T09:37:47;97669.00;;;26.70
19040;BMP180;9652;49.014;12.052;2023-07-20T09:40:18;97671.00;;;26.90
19040;BMP180;9652;49.014;12.052;2023-07-20T09:42:46;97683.00;;;27.00
19040;BMP180;9652;49.014;12.052;2023-07-20T09:45:15;97680.00;;;27.00
19040;BMP180;9652;49.014;12.052;2023-07-20T09:47:42;97686.00;;;27.00
19040;BMP180;9652;49.014;12.052;2023-07-20T09:50:09;97674.00;;;27.00
19040;BMP180;9652;49.014;12.052;2023-07-20T09:52:41;97676.00;;;27.10
19040;BMP180;9652;49.014;12.052;2023-07-20T09:55:10;97671.00;;;27.20
19040;BMP180;9652;49.014;12.052;2023-07-20T09:57:38;97684.00;;;27.20
19040;BMP180;9652;49.014;12.052;2023-07-20T10:00:07;97675.00;;;27.20
19040;BMP180;9652;49.014;12.052;2023-07-20T10:02:44;97685.00;;;27.20
19040;BMP180;9652;49.014;12.052;2023-07-20T10:05:13;97687.00;;;27.20
19040;BMP180;9652;49.014;12.052;2023-07-20T10:07:46;97681.00;;;27.20
19040;BMP180;9652;49.014;12.052;2023-07-20T10:10:16;97679.00;;;27.20
19040;BMP180;9652;49.014;12.052;2023-07-20T10:12:47;97681.00;;;27.30
19040;BMP180;9652;49.014;12.052;2023-07-20T10:15:20;97663.00;;;27.30
19040;BMP180;9652;49.014;12.052;2023-07-20T10:18:03;97672.00;;;27.30
19040;BMP180;9652;49.014;12.052;2023-07-20T10:20:39;97680.00;;;27.30
19040;BMP180;9652;49.014;12.052;2023-07-20T10:23:07;97668.00;;;27.30
19040;BMP180;9652;49.014;12.052;2023-07-20T10:25:35;97660.00;;;27.30
19040;BMP180;9652;49.014;12.052;2023-07-20T10:28:05;97667.00;;;27.30
19040;BMP180;9652;49.014;12.052;2023-07-20T10:30:34;97646.00;;;27.40
19040;BMP180;9652;49.014;12.052;2023-07-20T10:33:04;97661.00;;;27.40
19040;BMP180;9652;49.014;12.052;2023-07-20T10:35:50;97666.00;;;27.50
19040;BMP180;9652;49.014;12.052;2023-07-20T10:38:18;97647.00;;;27.60
19040;BMP180;9652;49.014;12.052;2023-07-20T10:40:54;97654.00;;;27.80
19040;BMP180;9652;49.014;12.052;2023-07-20T10:43:22;97648.00;;;28.00
19040;BMP180;9652;49.014;12.052;2023-07-20T10:45:51;97650.00;;;28.20
19040;BMP180;9652;49.014;12.052;2023-07-20T10:48:21;97652.00;;;28.30
19040;BMP180;9652;49.014;12.052;2023-07-20T10:51:11;97649.00;;;28.50
19040;BMP180;9652;49.014;12.052;2023-07-20T10:53:40;97649.00;;;28.60
19040;BMP180;9652;49.014;12.052;2023-07-20T10:56:11;97656.00;;;28.70
19040;BMP180;9652;49.014;12.052;2023-07-20T10:58:39;97626.00;;;28.70
19040;BMP180;9652;49.014;12.052;2023-07-20T11:01:08;97645.00;;;28.70
19040;BMP180;9652;49.014;12.052;2023-07-20T11:03:39;97658.00;;;28.70
19040;BMP180;9652;49.014;12.052;2023-07-20T11:06:32;97648.00;;;28.70
19040;BMP180;9652;49.014;12.052;2023-07-20T11:09:08;97640.00;;;28.80
19040;BMP180;9652;49.014;12.052;2023-07-20T11:11:38;97640.00;;;28.90
19040;BMP180;9652;49.014;12.052;2023-07-20T11:14:08;97638.00;;;29.00
19040;BMP180;9652;49.014;12.052;2023-07-20T11:16:40;97633.00;;;29.10
19040;BMP180;9652;49.014;12.052;2023-07-20T11:19:17;97637.00;;;29.10
19040;BMP180;9652;49.014;12.052;2023-07-20T11:21:46;97639.00;;;29.10
19040;BMP180;9652;49.014;12.052;2023-07-20T11:24:13;97641.00;;;29.10
19040;BMP180;9652;49.014;12.052;2023-07-20T11:26:45;97641.00;;;28.90
19040;BMP180;9652;49.014;12.052;2023-07-20T11:29:13;97630.00;;;28.90
19040;BMP180;9652;49.014;12.052;2023-07-20T11:31:42;97630.00;;;28.90
19040;BMP180;9652;49.014;12.052;2023-07-20T11:34:14;97628.00;;;28.80
19040;BMP180;9652;49.014;12.052;2023-07-20T11:36:44;97623.00;;;28.80
19040;BMP180;9652;49.014;12.052;2023-07-20T11:39:15;97628.00;;;28.80
19040;BMP180;9652;49.014;12.052;2023-07-20T11:41:46;97626.00;;;28.90
19040;BMP180;9652;49.014;12.052;2023-07-20T11:44:15;97620.00;;;29.00
19040;BMP180;9652;49.014;12.052;2023-07-20T11:46:43;97623.00;;;29.10
19040;BMP180;9652;49.014;12.052;2023-07-20T11:49:11;97632.00;;;29.10
19040;BMP180;9652;49.014;12.052;2023-07-20T11:51:41;97628.00;;;29.10
19040;BMP180;9652;49.014;12.052;2023-07-20T11:54:09;97629.00;;;29.10
19040;BMP180;9652;49.014;12.052;2023-07-20T11:56:41;97620.00;;;29.00
19040;BMP180;9652;49.014;12.052;2023-07-20T11:59:08;97605.00;;;29.00
19040;BMP180;9652;49.014;12.052;2023-07-20T12:01:35;97573.00;;;28.90
19040;BMP180;9652;49.014;12.052;2023-07-20T12:04:03;97594.00;;;28.90
19040;BMP180;9652;49.014;12.052;2023-07-20T12:06:32;97595.00;;;28.90
19040;BMP180;9652;49.014;12.052;2023-07-20T12:09:01;97600.00;;;28.90
19040;BMP180;9652;49.014;12.052;2023-07-20T12:11:35;97582.00;;;29.00
19040;BMP180;9652;49.014;12.052;2023-07-20T12:14:03;97579.00;;;29.10
19040;BMP180;9652;49.014;12.052;2023-07-20T12:16:31;97591.00;;;29.20
19040;BMP180;9652;49.014;12.052;2023-07-20T12:19:02;97593.00;;;29.30
19040;BMP180;9652;49.014;12.052;2023-07-20T12:21:29;97597.00;;;29.40
19040;BMP180;9652;49.014;12.052;2023-07-20T12:23:58;97598.00;;;29.40
19040;BMP180;9652;49.014;12.052;2023-07-20T12:26:30;97595.00;;;29.40
19040;BMP180;9652;49.014;12.052;2023-07-20T12:28:57;97592.00;;;29.50
19040;BMP180;9652;49.014;12.052;2023-07-20T12:31:26;97591.00;;;29.50
19040;BMP180;9652;49.014;12.052;2023-07-20T12:33:54;97553.00;;;29.60
19040;BMP180;9652;49.014;12.052;2023-07-20T12:36:22;97577.00;;;29.70
19040;BMP180;9652;49.014;12.052;2023-07-20T12:38:49;97561.00;;;29.80
19040;BMP180;9652;49.014;12.052;2023-07-20T12:41:17;97569.00;;;29.90
19040;BMP180;9652;49.014;12.052;2023-07-20T12:43:45;97574.00;;;30.00
19040;BMP180;9652;49.014;12.052;2023-07-20T12:46:13;97571.00;;;30.10
19040;BMP180;9652;49.014;12.052;2023-07-20T12:48:41;97572.00;;;30.20
19040;BMP180;9652;49.014;12.052;2023-07-20T12:51:09;97564.00;;;30.20
19040;BMP180;9652;49.014;12.052;2023-07-20T12:53:37;97562.00;;;30.20
19040;BMP180;9652;49.014;12.052;2023-07-20T12:56:05;97563.00;;;30.20
19040;BMP180;9652;49.014;12.052;2023-07-20T12:58:33;97560.00;;;30.10
19040;BMP180;9652;49.014;12.052;2023-07-20T13:01:01;97576.00;;;30.20
19040;BMP180;9652;49.014;12.052;2023-07-20T13:03:29;97569.00;;;30.10
19040;BMP180;9652;49.014;12.052;2023-07-20T13:05:56;97569.00;;;30.20
19040;BMP180;9652;49.014;12.052;2023-07-20T13:08:24;97557.00;;;30.20
19040;BMP180;9652;49.014;12.052;2023-07-20T13:10:52;97573.00;;;30.30
19040;BMP180;9652;49.014;12.052;2023-07-20T13:13:20;97564.00;;;30.50
19040;BMP180;9652;49.014;12.052;2023-07-20T13:15:47;97553.00;;;30.70
19040;BMP180;9652;49.014;12.052;2023-07-20T13:18:16;97543.00;;;31.00
19040;BMP180;9652;49.014;12.052;2023-07-20T13:20:44;97551.00;;;31.30
19040;BMP180;9652;49.014;12.052;2023-07-20T13:23:11;97533.00;;;31.80
19040;BMP180;9652;49.014;12.052;2023-07-20T13:25:38;97554.00;;;32.10
19040;BMP180;9652;49.014;12.052;2023-07-20T13:28:05;97550.00;;;32.30
19040;BMP180;9652;49.014;12.052;2023-07-20T13:30:32;97557.00;;;32.50
19040;BMP180;9652;49.014;12.052;2023-07-20T13:32:59;97536.00;;;32.70
19040;BMP180;9652;49.014;12.052;2023-07-20T13:35:28;97549.00;;;32.80
19040;BMP180;9652;49.014;12.052;2023-07-20T13:37:55;97542.00;;;32.70
19040;BMP180;9652;49.014;12.052;2023-07-20T13:40:23;97544.00;;;32.80
19040;BMP180;9652;49.014;12.052;2023-07-20T13:42:50;97547.00;;;32.80
19040;BMP180;9652;49.014;12.052;2023-07-20T13:45:17;97524.00;;;32.80
19040;BMP180;9652;49.014;12.052;2023-07-20T13:47:44;97542.00;;;32.90
19040;BMP180;9652;49.014;12.052;2023-07-20T13:50:11;97550.00;;;33.10
19040;BMP180;9652;49.014;12.052;2023-07-20T13:52:39;97540.00;;;33.40
19040;BMP180;9652;49.014;12.052;2023-07-20T13:55:08;97536.00;;;33.70
19040;BMP180;9652;49.014;12.052;2023-07-20T13:57:35;97542.00;;;34.00
19040;BMP180;9652;49.014;12.052;2023-07-20T14:00:02;97545.00;;;34.20
19040;BMP180;9652;49.014;12.052;2023-07-20T14:02:37;97535.00;;;34.40
19040;BMP180;9652;49.014;12.052;2023-07-20T14:05:05;97535.00;;;34.60
19040;BMP180;9652;49.014;12.052;2023-07-20T14:07:32;97540.00;;;34.80
19040;BMP180;9652;49.014;12.052;2023-07-20T14:10:01;97528.00;;;34.80
19040;BMP180;9652;49.014;12.052;2023-07-20T14:12:28;97530.00;;;35.00
19040;BMP180;9652;49.014;12.052;2023-07-20T14:14:55;97525.00;;;35.20
19040;BMP180;9652;49.014;12.052;2023-07-20T14:17:23;97475.00;;;35.30
19040;BMP180;9652;49.014;12.052;2023-07-20T14:19:51;97529.00;;;35.30
19040;BMP180;9652;49.014;12.052;2023-07-20T14:22:18;97517.00;;;35.30